Time;durP1;ratioP1;P1;durP2;ratioP2;P2;SDS_P1;SDS_P2;PMS_P1;PMS_P2;Temp;Humidity;BMP_temperature;BMP_pressure;BME280_temperature;BME280_humidity;BME280_pressure;Samples;Min_cycle;Max_cycle;Signal;HPM_P1;HPM_P2
2023/04/01 00:00:00;;;;;;;1.15;0.93;;;;;;;;;;5084727;28;20280;-81
2023/04/01 00:02:28;;;;;;;1.00;0.80;;;;;;;;;;5078473;28;20203;-80
2023/04/01 00:04:55;;;;;;;1.48;1.00;;;;;;;;;;5086239;28;20293;-80
2023/04/01 00:07:24;;;;;;;2.30;1.02;;;;;;;;;;5081676;28;20220;-81
2023/04/01 00:09:52;;;;;;;1.20;1.10;;;;;;;;;;5087259;28;20196;-81
2023/04/01 00:12:19;;;;;;;0.80;0.80;;;;;;;;;;5084098;28;20197;-80
2023/04/01 00:14:47;;;;;;;0.75;0.75;;;;;;;;;;5085635;28;20192;-81
2023/04/01 00:17:14;;;;;;;2.97;0.82;;;;;;;;;;5087011;28;20287;-79
2023/04/01 00:19:42;;;;;;;1.95;1.35;;;;;;;;;;5087480;28;20215;-81
2023/04/01 00:22:11;;;;;;;0.63;0.63;;;;;;;;;;5088680;28;20231;-80
2023/04/01 00:24:40;;;;;;;1.00;1.00;;;;;;;;;;5081351;28;20548;-82
2023/04/01 00:27:08;;;;;;;1.27;1.05;;;;;;;;;;5079192;28;20941;-79
2023/04/01 00:29:35;;;;;;;1.17;0.80;;;;;;;;;;5081110;28;20292;-78
2023/04/01 00:32:03;;;;;;;0.80;0.80;;;;;;;;;;5081006;28;20208;-81
2023/04/01 00:34:30;;;;;;;1.00;1.00;;;;;;;;;;5090985;28;20299;-81
2023/04/01 00:36:58;;;;;;;1.00;0.90;;;;;;;;;;5082735;28;20227;-78
2023/04/01 00:39:26;;;;;;;0.80;0.80;;;;;;;;;;5084217;28;20220;-79
2023/04/01 00:41:56;;;;;;;1.05;1.00;;;;;;;;;;5084558;28;20223;-81
2023/04/01 00:44:27;;;;;;;1.65;0.88;;;;;;;;;;5086829;28;20245;-78
2023/04/01 00:46:55;;;;;;;1.77;0.93;;;;;;;;;;5086081;28;20197;-81
2023/04/01 00:49:24;;;;;;;1.85;1.50;;;;;;;;;;5083715;28;20223;-78
2023/04/01 00:51:54;;;;;;;1.95;1.00;;;;;;;;;;5084482;28;20200;-80
2023/04/01 00:54:23;;;;;;;0.68;0.68;;;;;;;;;;5083275;28;20220;-78
2023/04/01 00:56:55;;;;;;;1.92;1.05;;;;;;;;;;5090497;28;20228;-78
2023/04/01 00:59:29;;;;;;;0.45;0.45;;;;;;;;;;5091980;28;20230;-81
2023/04/01 01:01:56;;;;;;;0.65;0.65;;;;;;;;;;5084205;28;20557;-80
2023/04/01 01:04:27;;;;;;;3.13;1.10;;;;;;;;;;5086708;28;20615;-79
2023/04/01 01:07:04;;;;;;;0.80;0.80;;;;;;;;;;5082416;28;20192;-79
2023/04/01 01:09:40;;;;;;;1.30;1.20;;;;;;;;;;5087928;28;20197;-80
2023/04/01 01:12:14;;;;;;;0.68;0.68;;;;;;;;;;5089503;28;20200;-79
2023/04/01 01:14:53;;;;;;;0.70;0.70;;;;;;;;;;5081305;28;20779;-80
2023/04/01 01:17:32;;;;;;;1.13;0.82;;;;;;;;;;5089882;28;20291;-79
2023/04/01 01:20:36;;;;;;;0.68;0.68;;;;;;;;;;5079433;28;20210;-80
2023/04/01 01:23:42;;;;;;;2.17;1.00;;;;;;;;;;5083861;28;20211;-80
2023/04/01 01:26:45;;;;;;;1.13;0.80;;;;;;;;;;5082845;28;20200;-77
2023/04/01 01:29:41;;;;;;;0.70;0.70;;;;;;;;;;5090274;28;20587;-80
2023/04/01 01:32:17;;;;;;;0.55;0.52;;;;;;;;;;5092061;28;20541;-77
2023/04/01 01:34:53;;;;;;;0.82;0.80;;;;;;;;;;5092340;28;20216;-79
2023/04/01 01:37:24;;;;;;;1.35;0.90;;;;;;;;;;5080447;28;20287;-80
2023/04/01 01:39:56;;;;;;;0.80;0.80;;;;;;;;;;5085843;28;20608;-79
2023/04/01 01:42:26;;;;;;;3.65;1.77;;;;;;;;;;5086100;28;20210;-79
2023/04/01 01:44:54;;;;;;;1.38;0.80;;;;;;;;;;5085610;28;20579;-79
2023/04/01 01:47:24;;;;;;;1.23;0.80;;;;;;;;;;5078949;28;20205;-80
2023/04/01 01:49:53;;;;;;;1.20;0.73;;;;;;;;;;5091329;28;20683;-78
2023/04/01 01:52:22;;;;;;;0.80;0.80;;;;;;;;;;5089611;28;20206;-80
2023/04/01 01:54:50;;;;;;;3.50;1.67;;;;;;;;;;5083380;28;20216;-78
2023/04/01 01:57:20;;;;;;;1.40;1.27;;;;;;;;;;5085555;28;20197;-78
2023/04/01 01:59:50;;;;;;;1.25;1.10;;;;;;;;;;5081094;28;20200;-79
2023/04/01 02:02:19;;;;;;;1.08;0.90;;;;;;;;;;5091056;28;20261;-80
2023/04/01 02:04:47;;;;;;;0.68;0.68;;;;;;;;;;5089239;28;20567;-78
2023/04/01 02:07:19;;;;;;;1.35;0.90;;;;;;;;;;5085077;28;20248;-79
2023/04/01 02:09:48;;;;;;;0.85;0.85;;;;;;;;;;5085767;28;20204;-79
2023/04/01 02:12:17;;;;;;;0.70;0.70;;;;;;;;;;5085860;28;20302;-78
2023/04/01 02:14:48;;;;;;;1.08;0.70;;;;;;;;;;5076117;28;20239;-79
2023/04/01 02:17:18;;;;;;;2.60;0.90;;;;;;;;;;5080938;28;20196;-79
2023/04/01 02:19:51;;;;;;;0.82;0.77;;;;;;;;;;5093312;22;20221;-84
2023/04/01 02:22:23;;;;;;;1.05;0.90;;;;;;;;;;5063013;28;20227;-84
2023/04/01 02:24:53;;;;;;;0.80;0.80;;;;;;;;;;5059246;28;20209;-83
2023/04/01 02:27:21;;;;;;;1.67;1.42;;;;;;;;;;5072267;28;20645;-84
2023/04/01 02:29:49;;;;;;;3.15;1.20;;;;;;;;;;5061143;28;20710;-83
2023/04/01 02:32:16;;;;;;;0.95;0.90;;;;;;;;;;5060940;28;20252;-83
2023/04/01 02:34:44;;;;;;;1.85;0.93;;;;;;;;;;5050063;28;20256;-83
2023/04/01 02:37:13;;;;;;;0.85;0.85;;;;;;;;;;5046680;28;20941;-83
2023/04/01 02:39:42;;;;;;;1.48;1.00;;;;;;;;;;5054986;28;20276;-83
2023/04/01 02:42:11;;;;;;;1.30;0.82;;;;;;;;;;5050558;28;20222;-83
2023/04/01 02:44:39;;;;;;;0.82;0.80;;;;;;;;;;5050614;28;20225;-84
2023/04/01 02:47:06;;;;;;;1.13;1.00;;;;;;;;;;5059647;28;20280;-84
2023/04/01 02:49:34;;;;;;;0.70;0.70;;;;;;;;;;5058521;28;20294;-84
2023/04/01 02:52:01;;;;;;;0.80;0.80;;;;;;;;;;5060029;28;20256;-83
2023/04/01 02:54:29;;;;;;;0.80;0.80;;;;;;;;;;5051309;28;20311;-83
2023/04/01 02:56:56;;;;;;;2.05;1.05;;;;;;;;;;5060334;28;20611;-83
2023/04/01 02:59:25;;;;;;;0.80;0.80;;;;;;;;;;5050715;28;20247;-83
2023/04/01 03:01:53;;;;;;;0.80;0.75;;;;;;;;;;5044746;28;20313;-83
2023/04/01 03:04:20;;;;;;;1.10;1.00;;;;;;;;;;5056521;28;20312;-83
2023/04/01 03:06:48;;;;;;;2.28;1.00;;;;;;;;;;5048017;28;20240;-83
2023/04/01 03:09:16;;;;;;;1.08;0.80;;;;;;;;;;5046741;28;20229;-83
2023/04/01 03:11:44;;;;;;;2.08;0.85;;;;;;;;;;5050169;28;20254;-84
2023/04/01 03:14:11;;;;;;;3.50;1.17;;;;;;;;;;5050045;28;20920;-83
2023/04/01 03:16:40;;;;;;;2.33;1.08;;;;;;;;;;5065527;28;20190;-83
2023/04/01 03:19:08;;;;;;;1.10;0.93;;;;;;;;;;5059211;28;20297;-84
2023/04/01 03:21:35;;;;;;;0.70;0.70;;;;;;;;;;5047245;28;21212;-82
2023/04/01 03:24:03;;;;;;;1.10;1.00;;;;;;;;;;5045113;28;20196;-83
2023/04/01 03:26:31;;;;;;;1.05;1.05;;;;;;;;;;5047668;28;20205;-84
2023/04/01 03:28:58;;;;;;;1.17;0.95;;;;;;;;;;5047970;28;20387;-83
2023/04/01 03:31:28;;;;;;;0.70;0.70;;;;;;;;;;5055212;28;20249;-83
2023/04/01 03:33:57;;;;;;;3.83;1.20;;;;;;;;;;5051265;28;20193;-83
2023/04/01 03:36:26;;;;;;;3.95;1.20;;;;;;;;;;5064000;28;20260;-84
2023/04/01 03:38:54;;;;;;;1.60;1.35;;;;;;;;;;5052760;28;20261;-83
2023/04/01 03:41:21;;;;;;;1.58;1.38;;;;;;;;;;5066442;28;20304;-83
2023/04/01 03:43:49;;;;;;;1.63;1.23;;;;;;;;;;5063029;28;20193;-83
2023/04/01 03:46:19;;;;;;;2.15;0.88;;;;;;;;;;5052406;28;20225;-83
2023/04/01 03:48:47;;;;;;;1.17;0.85;;;;;;;;;;5054264;28;20281;-84
2023/04/01 03:51:15;;;;;;;0.90;0.90;;;;;;;;;;5070382;28;20219;-84
2023/04/01 03:53:43;;;;;;;2.30;1.15;;;;;;;;;;5058007;28;20261;-83
2023/04/01 03:56:11;;;;;;;1.17;0.98;;;;;;;;;;5047842;28;20256;-82
2023/04/01 03:58:39;;;;;;;0.95;0.95;;;;;;;;;;5056987;28;20722;-84
2023/04/01 04:01:16;;;;;;;1.08;0.98;;;;;;;;;;5060087;28;20236;-83
2023/04/01 04:03:45;;;;;;;1.48;0.98;;;;;;;;;;5042499;28;20274;-83
2023/04/01 04:06:15;;;;;;;1.48;0.80;;;;;;;;;;5054425;28;20210;-83
2023/04/01 04:08:44;;;;;;;1.90;1.08;;;;;;;;;;5055672;28;20399;-84
2023/04/01 04:11:11;;;;;;;0.90;0.90;;;;;;;;;;5057713;28;20226;-83
2023/04/01 04:13:39;;;;;;;2.47;1.10;;;;;;;;;;5055482;28;20288;-83
2023/04/01 04:16:07;;;;;;;0.77;0.77;;;;;;;;;;5055880;28;20253;-83
2023/04/01 04:18:35;;;;;;;0.88;0.88;;;;;;;;;;5048154;28;20292;-83
2023/04/01 04:21:02;;;;;;;0.98;0.98;;;;;;;;;;5050561;28;20189;-84
2023/04/01 04:23:33;;;;;;;0.90;0.90;;;;;;;;;;5075597;28;20618;-83
2023/04/01 04:26:03;;;;;;;0.82;0.73;;;;;;;;;;5060673;28;20229;-83
2023/04/01 04:28:31;;;;;;;0.90;0.70;;;;;;;;;;5047742;28;20315;-83
2023/04/01 04:30:59;;;;;;;0.85;0.85;;;;;;;;;;5044944;28;20201;-83
2023/04/01 04:33:27;;;;;;;1.50;0.98;;;;;;;;;;5042780;28;20606;-83
2023/04/01 04:35:58;;;;;;;1.38;0.95;;;;;;;;;;5069934;28;20245;-83
2023/04/01 04:38:26;;;;;;;1.30;1.10;;;;;;;;;;5049530;28;20206;-82
2023/04/01 04:40:55;;;;;;;1.13;0.77;;;;;;;;;;5055744;28;20259;-83
2023/04/01 04:43:23;;;;;;;1.65;0.95;;;;;;;;;;5054743;28;20283;-82
2023/04/01 04:45:51;;;;;;;1.08;0.98;;;;;;;;;;5050200;28;20197;-83
2023/04/01 04:48:20;;;;;;;0.82;0.73;;;;;;;;;;5055219;28;20607;-84
2023/04/01 04:50:48;;;;;;;1.88;0.77;;;;;;;;;;5064477;28;20214;-83
2023/04/01 04:53:17;;;;;;;1.58;0.75;;;;;;;;;;5053313;28;20222;-84
2023/04/01 04:55:46;;;;;;;0.80;0.80;;;;;;;;;;5042113;28;20224;-83
2023/04/01 04:58:15;;;;;;;1.60;0.88;;;;;;;;;;5062834;28;20292;-83
2023/04/01 05:00:43;;;;;;;1.77;0.98;;;;;;;;;;5054454;28;20204;-84
2023/04/01 05:03:11;;;;;;;1.08;0.80;;;;;;;;;;5053993;28;20237;-83
2023/04/01 05:05:39;;;;;;;0.82;0.60;;;;;;;;;;5043435;28;20190;-83
2023/04/01 05:08:07;;;;;;;0.65;0.65;;;;;;;;;;5056136;28;20288;-83
2023/04/01 05:10:34;;;;;;;0.75;0.75;;;;;;;;;;5055551;28;20651;-83
2023/04/01 05:13:02;;;;;;;1.48;0.75;;;;;;;;;;5055491;28;20248;-83
2023/04/01 05:15:31;;;;;;;1.67;0.93;;;;;;;;;;5050651;28;20704;-83
2023/04/01 05:17:58;;;;;;;1.15;0.73;;;;;;;;;;5035466;28;20685;-83
2023/04/01 05:20:26;;;;;;;0.80;0.60;;;;;;;;;;5054510;28;20240;-83
2023/04/01 05:22:57;;;;;;;0.88;0.85;;;;;;;;;;5054437;28;20249;-83
2023/04/01 05:25:25;;;;;;;0.80;0.80;;;;;;;;;;5055406;28;20223;-83
2023/04/01 05:27:52;;;;;;;0.77;0.77;;;;;;;;;;5055047;28;20641;-83
2023/04/01 05:30:20;;;;;;;1.90;1.42;;;;;;;;;;5064911;28;20236;-83
2023/04/01 05:32:49;;;;;;;0.80;0.80;;;;;;;;;;5035295;28;20651;-83
2023/04/01 05:35:17;;;;;;;3.20;1.05;;;;;;;;;;5035894;28;20234;-83
2023/04/01 05:37:45;;;;;;;1.25;1.00;;;;;;;;;;5035244;28;20269;-83
2023/04/01 05:40:12;;;;;;;0.90;0.90;;;;;;;;;;5052575;28;20293;-84
2023/04/01 05:42:42;;;;;;;1.63;0.90;;;;;;;;;;5068456;28;20271;-82
2023/04/01 05:45:11;;;;;;;0.82;0.70;;;;;;;;;;5052916;28;20213;-83
2023/04/01 05:47:41;;;;;;;0.93;0.82;;;;;;;;;;5051921;28;20284;-84
2023/04/01 05:50:11;;;;;;;1.88;0.93;;;;;;;;;;5056302;28;20766;-83
2023/04/01 05:52:42;;;;;;;0.68;0.68;;;;;;;;;;5067843;28;20700;-84
2023/04/01 05:55:10;;;;;;;0.80;0.68;;;;;;;;;;5075430;28;20269;-83
2023/04/01 05:57:38;;;;;;;0.85;0.82;;;;;;;;;;5075586;28;20263;-84
2023/04/01 06:00:09;;;;;;;3.90;0.80;;;;;;;;;;5066676;28;20575;-84
2023/04/01 06:02:38;;;;;;;0.70;0.70;;;;;;;;;;5050933;28;20222;-84
2023/04/01 06:05:17;;;;;;;1.35;1.10;;;;;;;;;;5049710;28;20220;-84
2023/04/01 06:07:45;;;;;;;1.02;0.70;;;;;;;;;;5067666;28;20288;-84
2023/04/01 06:10:17;;;;;;;0.95;0.70;;;;;;;;;;5063991;28;20201;-84
2023/04/01 06:12:56;;;;;;;0.73;0.73;;;;;;;;;;5051274;28;20244;-83
2023/04/01 06:15:38;;;;;;;0.73;0.60;;;;;;;;;;5053354;28;20570;-84
2023/04/01 06:18:42;;;;;;;0.75;0.75;;;;;;;;;;5056099;28;20208;-83
2023/04/01 06:21:49;;;;;;;0.60;0.60;;;;;;;;;;5049693;28;20257;-83
2023/04/01 06:24:47;;;;;;;0.63;0.63;;;;;;;;;;5022339;28;20225;-82
2023/04/01 06:27:25;;;;;;;1.27;0.88;;;;;;;;;;5054972;28;20290;-83
2023/04/01 06:30:03;;;;;;;0.68;0.60;;;;;;;;;;5054837;28;20224;-83
2023/04/01 06:32:47;;;;;;;1.45;0.80;;;;;;;;;;5054998;28;20876;-84
2023/04/01 06:35:45;;;;;;;0.80;0.80;;;;;;;;;;5056986;28;20202;-84
2023/04/01 06:38:31;;;;;;;3.17;1.08;;;;;;;;;;5055113;28;20318;-85
2023/04/01 06:41:22;;;;;;;1.13;0.88;;;;;;;;;;5066192;28;20668;-84
2023/04/01 06:44:00;;;;;;;0.50;0.50;;;;;;;;;;5052342;28;20602;-83
2023/04/01 06:46:37;;;;;;;0.60;0.60;;;;;;;;;;5056354;28;20197;-84
2023/04/01 06:49:30;;;;;;;1.25;1.00;;;;;;;;;;5055414;28;20201;-83
2023/04/01 06:52:03;;;;;;;0.70;0.50;;;;;;;;;;5034556;28;20241;-83
2023/04/01 06:54:36;;;;;;;0.95;0.82;;;;;;;;;;5052082;28;20229;-83
2023/04/01 06:57:10;;;;;;;0.98;0.70;;;;;;;;;;5054257;28;20224;-85
2023/04/01 06:59:39;;;;;;;1.65;0.95;;;;;;;;;;5052875;28;20228;-85
2023/04/01 07:02:19;;;;;;;0.65;0.65;;;;;;;;;;5052706;28;20222;-86
2023/04/01 07:04:49;;;;;;;1.35;0.70;;;;;;;;;;5040374;28;20197;-84
2023/04/01 07:07:25;;;;;;;1.27;0.70;;;;;;;;;;5053433;28;20198;-84
2023/04/01 07:09:59;;;;;;;1.73;1.02;;;;;;;;;;5057272;28;20217;-84
2023/04/01 07:12:38;;;;;;;0.70;0.70;;;;;;;;;;5041031;28;20232;-84
2023/04/01 07:15:18;;;;;;;0.60;0.60;;;;;;;;;;5041643;28;20293;-84
2023/04/01 07:17:47;;;;;;;0.80;0.77;;;;;;;;;;5054788;28;20301;-84
2023/04/01 07:20:21;;;;;;;0.50;0.50;;;;;;;;;;5064495;28;20714;-84
2023/04/01 07:22:51;;;;;;;1.20;0.77;;;;;;;;;;5059558;28;20216;-84
2023/04/01 07:25:25;;;;;;;0.65;0.65;;;;;;;;;;5051305;28;20247;-84
2023/04/01 07:27:54;;;;;;;0.95;0.70;;;;;;;;;;5048219;28;20273;-83
2023/04/01 07:30:24;;;;;;;1.05;0.80;;;;;;;;;;5052759;28;20198;-83
2023/04/01 07:32:57;;;;;;;0.55;0.55;;;;;;;;;;5072344;22;20270;-85
2023/04/01 07:35:28;;;;;;;0.70;0.70;;;;;;;;;;5058340;28;20197;-84
2023/04/01 07:38:10;;;;;;;0.90;0.70;;;;;;;;;;5060960;28;20221;-84
2023/04/01 07:40:49;;;;;;;1.30;1.20;;;;;;;;;;5035882;28;20579;-85
2023/04/01 07:43:42;;;;;;;1.60;0.82;;;;;;;;;;5040595;28;20213;-85
2023/04/01 07:46:21;;;;;;;0.75;0.60;;;;;;;;;;5035479;28;20613;-85
2023/04/01 07:48:53;;;;;;;0.60;0.60;;;;;;;;;;5051566;28;20224;-84
2023/04/01 07:51:27;;;;;;;0.85;0.85;;;;;;;;;;5045403;28;20572;-85
2023/04/01 07:54:02;;;;;;;0.70;0.70;;;;;;;;;;5039950;28;20197;-84
2023/04/01 07:56:36;;;;;;;0.82;0.52;;;;;;;;;;5050749;28;20198;-85
2023/04/01 07:59:10;;;;;;;0.70;0.70;;;;;;;;;;5052121;28;20231;-85
2023/04/01 08:01:41;;;;;;;1.15;1.00;;;;;;;;;;5050884;28;20190;-85
2023/04/01 08:04:26;;;;;;;1.92;1.77;;;;;;;;;;5051314;28;20280;-86
2023/04/01 08:07:00;;;;;;;1.58;1.48;;;;;;;;;;5048020;28;20202;-85
2023/04/01 08:09:36;;;;;;;1.00;0.90;;;;;;;;;;5046666;28;20301;-85
2023/04/01 08:12:19;;;;;;;1.77;1.00;;;;;;;;;;5047609;28;20859;-84
2023/04/01 08:14:59;;;;;;;0.82;0.82;;;;;;;;;;5050859;28;20212;-85
2023/04/01 08:17:33;;;;;;;1.10;0.95;;;;;;;;;;5048715;28;20283;-85
2023/04/01 08:20:23;;;;;;;1.20;0.70;;;;;;;;;;5089082;23;20316;-85
2023/04/01 08:22:55;;;;;;;0.70;0.70;;;;;;;;;;5074243;28;20272;-84
2023/04/01 08:25:26;;;;;;;0.60;0.60;;;;;;;;;;5075139;28;20263;-85
2023/04/01 08:28:00;;;;;;;0.88;0.80;;;;;;;;;;5074765;28;20197;-85
2023/04/01 08:30:33;;;;;;;1.17;0.80;;;;;;;;;;5074126;28;20235;-85
2023/04/01 08:33:06;;;;;;;0.98;0.98;;;;;;;;;;5066593;28;20634;-85
2023/04/01 08:35:38;;;;;;;1.75;0.95;;;;;;;;;;5071862;28;20292;-87
2023/04/01 08:38:12;;;;;;;0.70;0.70;;;;;;;;;;5075473;28;20211;-85
2023/04/01 08:41:01;;;;;;;1.02;0.75;;;;;;;;;;5072315;28;20223;-85
2023/04/01 08:44:00;;;;;;;0.98;0.82;;;;;;;;;;5065642;28;20268;-85
2023/04/01 08:47:14;;;;;;;0.88;0.88;;;;;;;;;;5076069;28;20185;-87
2023/04/01 08:50:07;;;;;;;1.42;0.90;;;;;;;;;;5081915;28;20591;-86
2023/04/01 08:52:37;;;;;;;0.85;0.70;;;;;;;;;;5068295;28;20660;-87
2023/04/01 08:55:29;;;;;;;0.60;0.60;;;;;;;;;;5074790;28;20193;-86
2023/04/01 08:58:30;;;;;;;0.60;0.60;;;;;;;;;;5070670;28;20223;-86
2023/04/01 09:04:25;;;;;;;0.75;0.75;;;;;;;;;;5085635;28;20204;-86
2023/04/01 09:07:09;;;;;;;0.70;0.70;;;;;;;;;;5053244;28;20220;-84
2023/04/01 09:10:20;;;;;;;1.95;0.77;;;;;;;;;;5068193;28;21455;-85
2023/04/01 09:13:00;;;;;;;1.73;1.65;;;;;;;;;;5068410;28;20299;-83
2023/04/01 09:15:42;;;;;;;2.30;2.10;;;;;;;;;;5073307;28;20212;-82
2023/04/01 09:18:41;;;;;;;1.20;1.10;;;;;;;;;;5071621;28;20232;-82
2023/04/01 09:21:28;;;;;;;1.17;1.00;;;;;;;;;;5073377;28;20221;-82
2023/04/01 09:24:36;;;;;;;1.15;1.13;;;;;;;;;;5079377;28;20228;-84
2023/04/01 09:27:30;;;;;;;1.20;0.80;;;;;;;;;;5078861;28;20280;-84
2023/04/01 09:30:47;;;;;;;0.85;0.80;;;;;;;;;;5075654;28;20212;-85
2023/04/01 09:34:17;;;;;;;0.47;0.47;;;;;;;;;;5072993;28;20583;-84
2023/04/01 09:36:48;;;;;;;0.90;0.50;;;;;;;;;;5060088;28;20228;-84
2023/04/01 09:39:37;;;;;;;0.80;0.80;;;;;;;;;;5074808;28;20312;-85
2023/04/01 09:42:35;;;;;;;0.65;0.50;;;;;;;;;;5075020;28;20725;-84
2023/04/01 09:45:08;;;;;;;1.23;0.63;;;;;;;;;;5071396;28;20642;-86
2023/04/01 09:47:49;;;;;;;1.27;0.70;;;;;;;;;;5073814;28;20209;-84
2023/04/01 09:50:37;;;;;;;0.47;0.47;;;;;;;;;;5070246;28;20300;-85
2023/04/01 09:53:17;;;;;;;0.65;0.65;;;;;;;;;;5072405;28;20251;-86
2023/04/01 09:56:40;;;;;;;0.85;0.60;;;;;;;;;;5071543;28;20568;-86
2023/04/01 09:59:54;;;;;;;0.60;0.60;;;;;;;;;;5079391;28;20220;-87
2023/04/01 10:03:03;;;;;;;0.77;0.68;;;;;;;;;;5074437;28;20200;-86
2023/04/01 10:06:16;;;;;;;0.80;0.80;;;;;;;;;;5074558;28;20203;-86
2023/04/01 10:09:34;;;;;;;0.70;0.70;;;;;;;;;;5056563;28;20220;-87
2023/04/01 10:12:47;;;;;;;0.70;0.70;;;;;;;;;;5026288;28;20296;-86
2023/04/01 10:15:58;;;;;;;1.50;0.85;;;;;;;;;;5073582;28;20203;-87
2023/04/01 10:18:47;;;;;;;0.52;0.52;;;;;;;;;;4987860;28;20217;-85
2023/04/01 10:21:45;;;;;;;0.63;0.63;;;;;;;;;;5073140;28;20661;-86
2023/04/01 10:24:56;;;;;;;0.60;0.60;;;;;;;;;;5075410;28;20197;-87
2023/04/01 10:27:45;;;;;;;0.68;0.68;;;;;;;;;;5001816;28;20232;-87
2023/04/01 10:30:41;;;;;;;1.23;1.13;;;;;;;;;;5072923;28;20223;-87
2023/04/01 10:34:14;;;;;;;0.68;0.68;;;;;;;;;;5076249;28;20677;-87
2023/04/01 10:36:59;;;;;;;1.05;0.90;;;;;;;;;;5011791;28;20214;-86
2023/04/01 10:39:39;;;;;;;0.60;0.60;;;;;;;;;;5019952;28;20294;-87
2023/04/01 10:43:04;;;;;;;0.80;0.80;;;;;;;;;;5066636;28;20258;-86
2023/04/01 10:46:20;;;;;;;0.57;0.57;;;;;;;;;;5029457;28;20747;-86
2023/04/01 10:49:34;;;;;;;0.50;0.50;;;;;;;;;;5072299;28;20685;-87
2023/04/01 10:52:39;;;;;;;0.55;0.50;;;;;;;;;;5071286;28;20297;-87
2023/04/01 10:55:36;;;;;;;0.60;0.60;;;;;;;;;;5072856;28;20225;-86
2023/04/01 10:59:04;;;;;;;0.63;0.63;;;;;;;;;;5074942;28;20673;-86
2023/04/01 11:02:33;;;;;;;0.60;0.60;;;;;;;;;;5059411;28;20309;-86
2023/04/01 11:05:49;;;;;;;0.65;0.65;;;;;;;;;;5071557;28;20196;-87
2023/04/01 11:08:47;;;;;;;0.63;0.63;;;;;;;;;;5073246;28;20209;-86
2023/04/01 11:12:04;;;;;;;0.60;0.60;;;;;;;;;;5073221;28;20646;-86
2023/04/01 11:14:58;;;;;;;0.50;0.50;;;;;;;;;;5072293;28;20950;-87
2023/04/01 11:17:59;;;;;;;0.40;0.40;;;;;;;;;;5072611;28;20193;-86
2023/04/01 11:21:06;;;;;;;0.40;0.40;;;;;;;;;;5065665;28;20252;-86
2023/04/01 11:23:51;;;;;;;0.47;0.47;;;;;;;;;;5072071;28;20573;-86
2023/04/01 11:26:34;;;;;;;0.50;0.50;;;;;;;;;;5056422;28;20583;-86
2023/04/01 11:29:29;;;;;;;0.75;0.75;;;;;;;;;;5057101;28;20237;-86
2023/04/01 11:32:14;;;;;;;0.50;0.50;;;;;;;;;;5062049;28;20212;-85
2023/04/01 11:35:01;;;;;;;0.40;0.40;;;;;;;;;;5067515;28;20532;-83
2023/04/01 11:37:41;;;;;;;0.47;0.43;;;;;;;;;;5064513;28;20213;-84
2023/04/01 11:40:23;;;;;;;0.25;0.25;;;;;;;;;;5074670;28;20227;-85
2023/04/01 11:43:05;;;;;;;0.50;0.50;;;;;;;;;;5077363;28;20205;-89
2023/04/01 11:45:41;;;;;;;1.23;1.13;;;;;;;;;;5080852;28;20201;-87
2023/04/01 11:48:33;;;;;;;0.50;0.50;;;;;;;;;;5072905;28;20193;-85
2023/04/01 11:51:19;;;;;;;0.50;0.50;;;;;;;;;;5077878;28;20609;-86
2023/04/01 11:53:55;;;;;;;0.30;0.30;;;;;;;;;;5072722;28;20199;-84
2023/04/01 11:56:51;;;;;;;0.45;0.45;;;;;;;;;;5078913;28;20228;-85
2023/04/01 12:00:17;;;;;;;0.40;0.40;;;;;;;;;;5079251;28;20228;-85
2023/04/01 12:03:03;;;;;;;0.60;0.60;;;;;;;;;;5082616;28;20193;-85
2023/04/01 12:05:43;;;;;;;0.28;0.28;;;;;;;;;;5077103;28;20220;-86
2023/04/01 12:08:37;;;;;;;0.57;0.57;;;;;;;;;;5085799;28;20204;-85
2023/04/01 12:11:15;;;;;;;0.38;0.38;;;;;;;;;;5090571;28;20233;-86
2023/04/01 12:13:53;;;;;;;0.60;0.60;;;;;;;;;;5084782;28;20205;-86
2023/04/01 12:16:40;;;;;;;0.65;0.63;;;;;;;;;;5091471;28;20185;-87
2023/04/01 12:19:22;;;;;;;0.60;0.60;;;;;;;;;;5089544;28;20262;-87
2023/04/01 12:22:07;;;;;;;0.57;0.57;;;;;;;;;;5087914;28;20204;-87
2023/04/01 12:24:51;;;;;;;0.38;0.30;;;;;;;;;;5091978;28;20205;-87
2023/04/01 12:27:40;;;;;;;0.35;0.35;;;;;;;;;;5090907;28;20197;-87
2023/04/01 12:30:47;;;;;;;0.30;0.30;;;;;;;;;;5091760;28;20213;-86
2023/04/01 12:33:53;;;;;;;0.22;0.22;;;;;;;;;;5096806;28;20228;-87
2023/04/01 12:36:47;;;;;;;0.35;0.35;;;;;;;;;;5088949;28;20201;-86
2023/04/01 12:39:53;;;;;;;0.30;0.30;;;;;;;;;;5088643;28;20308;-86
2023/04/01 12:42:55;;;;;;;0.32;0.32;;;;;;;;;;5093026;28;20188;-87
2023/04/01 12:45:41;;;;;;;0.50;0.50;;;;;;;;;;5081480;28;20201;-87
2023/04/01 12:48:39;;;;;;;0.50;0.50;;;;;;;;;;5089402;28;20201;-87
2023/04/01 12:51:48;;;;;;;0.65;0.50;;;;;;;;;;5089811;28;20185;-87
2023/04/01 12:55:33;;;;;;;0.30;0.30;;;;;;;;;;5076762;28;20220;-88
2023/04/01 12:58:18;;;;;;;0.70;0.70;;;;;;;;;;5035610;28;20307;-87
2023/04/01 13:01:04;;;;;;;0.40;0.40;;;;;;;;;;5025288;28;20870;-87
2023/04/01 13:03:58;;;;;;;1.48;0.63;;;;;;;;;;5058764;28;20235;-88
2023/04/01 13:06:56;;;;;;;0.32;0.32;;;;;;;;;;5088295;28;20193;-87
2023/04/01 13:09:36;;;;;;;1.95;0.40;;;;;;;;;;5091442;28;20241;-87
2023/04/01 13:12:30;;;;;;;0.30;0.30;;;;;;;;;;5091906;28;20219;-86
2023/04/01 13:15:23;;;;;;;0.30;0.30;;;;;;;;;;5090663;28;20189;-86
2023/04/01 13:17:58;;;;;;;0.30;0.30;;;;;;;;;;5084779;28;20242;-87
2023/04/01 13:20:39;;;;;;;0.30;0.30;;;;;;;;;;5089287;28;20220;-88
2023/04/01 13:23:20;;;;;;;0.30;0.30;;;;;;;;;;5087740;28;20188;-87
2023/04/01 13:25:52;;;;;;;0.40;0.40;;;;;;;;;;5084367;28;20208;-87
2023/04/01 13:28:25;;;;;;;0.30;0.30;;;;;;;;;;5090545;28;20193;-88
2023/04/01 13:31:00;;;;;;;0.63;0.63;;;;;;;;;;5090592;28;20201;-87
2023/04/01 13:33:34;;;;;;;0.30;0.30;;;;;;;;;;5091198;28;20208;-88
2023/04/01 13:36:17;;;;;;;0.50;0.50;;;;;;;;;;5089806;28;20203;-87
2023/04/01 13:39:06;;;;;;;0.40;0.40;;;;;;;;;;5090405;28;20208;-88
2023/04/01 13:42:13;;;;;;;0.40;0.40;;;;;;;;;;5090855;28;20221;-87
2023/04/01 13:44:46;;;;;;;0.30;0.30;;;;;;;;;;5072994;28;20205;-87
2023/04/01 13:47:41;;;;;;;0.40;0.40;;;;;;;;;;5090914;28;20205;-87
2023/04/01 13:50:27;;;;;;;0.30;0.30;;;;;;;;;;5090638;28;20236;-87
2023/04/01 13:53:17;;;;;;;0.32;0.32;;;;;;;;;;5091426;28;20227;-87
2023/04/01 13:56:00;;;;;;;0.55;0.55;;;;;;;;;;5085392;28;20665;-87
2023/04/01 13:59:09;;;;;;;0.43;0.43;;;;;;;;;;5088256;28;20220;-88
2023/04/01 14:01:43;;;;;;;0.40;0.40;;;;;;;;;;5086561;28;20233;-88
2023/04/01 14:04:51;;;;;;;0.60;0.43;;;;;;;;;;5090245;28;20225;-88
2023/04/01 14:07:43;;;;;;;0.38;0.38;;;;;;;;;;5088802;28;20295;-88
2023/04/01 14:10:23;;;;;;;0.30;0.30;;;;;;;;;;5083898;28;20240;-88
2023/04/01 14:12:59;;;;;;;0.22;0.22;;;;;;;;;;5090645;28;20192;-87
2023/04/01 14:16:18;;;;;;;0.20;0.20;;;;;;;;;;5083855;28;20221;-87
2023/04/01 14:19:04;;;;;;;0.55;0.40;;;;;;;;;;5060485;28;20221;-87
2023/04/01 14:21:39;;;;;;;0.50;0.50;;;;;;;;;;5082988;28;20236;-88
2023/04/01 14:24:32;;;;;;;0.60;0.60;;;;;;;;;;5083688;28;20205;-87
2023/04/01 14:27:31;;;;;;;0.52;0.50;;;;;;;;;;5082258;28;20205;-87
2023/04/01 14:30:25;;;;;;;0.70;0.70;;;;;;;;;;5079920;28;20333;-87
2023/04/01 14:33:00;;;;;;;0.25;0.25;;;;;;;;;;5086185;28;20270;-88
2023/04/01 14:35:38;;;;;;;0.50;0.50;;;;;;;;;;5087234;28;20197;-87
2023/04/01 14:38:27;;;;;;;0.50;0.50;;;;;;;;;;5086949;28;20308;-87
2023/04/01 14:40:59;;;;;;;0.70;0.70;;;;;;;;;;5085364;28;20260;-87
2023/04/01 14:43:54;;;;;;;0.43;0.43;;;;;;;;;;5087158;28;20615;-87
2023/04/01 14:46:51;;;;;;;0.30;0.30;;;;;;;;;;5086800;28;20262;-88
2023/04/01 14:49:31;;;;;;;0.43;0.43;;;;;;;;;;5087871;28;20221;-87
2023/04/01 14:52:07;;;;;;;0.40;0.40;;;;;;;;;;5088965;28;20587;-88
2023/04/01 14:54:38;;;;;;;0.52;0.52;;;;;;;;;;5089237;28;20240;-88
2023/04/01 14:57:13;;;;;;;0.60;0.60;;;;;;;;;;5088724;28;20208;-88
2023/04/01 14:59:47;;;;;;;0.77;0.50;;;;;;;;;;5086480;28;20217;-86
2023/04/01 15:02:45;;;;;;;0.73;0.73;;;;;;;;;;5086811;28;20217;-88
2023/04/01 15:05:24;;;;;;;0.80;0.80;;;;;;;;;;5080567;28;20193;-87
2023/04/01 15:08:20;;;;;;;0.50;0.50;;;;;;;;;;5086101;28;20571;-87
2023/04/01 15:11:30;;;;;;;0.63;0.63;;;;;;;;;;5089392;28;20201;-88
2023/04/01 15:14:41;;;;;;;0.52;0.52;;;;;;;;;;5089507;28;20200;-87
2023/04/01 15:17:38;;;;;;;0.50;0.50;;;;;;;;;;5087630;28;20287;-88
2023/04/01 15:20:51;;;;;;;0.50;0.50;;;;;;;;;;5081170;28;20256;-88
2023/04/01 15:23:30;;;;;;;0.47;0.47;;;;;;;;;;5076049;28;20297;-86
2023/04/01 15:26:34;;;;;;;0.50;0.50;;;;;;;;;;5089158;28;20206;-87
2023/04/01 15:29:26;;;;;;;0.60;0.60;;;;;;;;;;5085775;28;20259;-87
2023/04/01 15:32:00;;;;;;;0.60;0.60;;;;;;;;;;5077937;28;20208;-87
2023/04/01 15:34:36;;;;;;;0.82;0.82;;;;;;;;;;5090596;28;20201;-88
2023/04/01 15:37:12;;;;;;;2.03;1.92;;;;;;;;;;5092713;28;20203;-89
2023/04/01 15:39:52;;;;;;;1.10;1.10;;;;;;;;;;5076244;28;20208;-88
2023/04/01 15:42:35;;;;;;;1.10;1.00;;;;;;;;;;5089463;28;20232;-87
2023/04/01 15:45:19;;;;;;;0.90;0.90;;;;;;;;;;5091937;28;20215;-88
2023/04/01 15:47:53;;;;;;;1.10;1.00;;;;;;;;;;5088867;28;20197;-88
2023/04/01 15:50:52;;;;;;;1.38;1.30;;;;;;;;;;5085742;28;20247;-88
2023/04/01 15:53:35;;;;;;;1.10;1.00;;;;;;;;;;5078784;28;20740;-88
2023/04/01 15:56:30;;;;;;;1.15;1.00;;;;;;;;;;5083948;28;20227;-88
2023/04/01 15:59:12;;;;;;;0.90;0.90;;;;;;;;;;5085751;28;20213;-88
2023/04/01 16:01:47;;;;;;;0.80;0.68;;;;;;;;;;5079602;28;20231;-88
2023/04/01 16:04:32;;;;;;;0.50;0.50;;;;;;;;;;5083643;28;20212;-88
2023/04/01 16:07:16;;;;;;;0.45;0.45;;;;;;;;;;5087404;28;20273;-89